Flight Track Log - Related Links

Times and Time Zones

All times are in EDT time to prevent confusion due to time zone crossing. See the N857AE flight status page for this flight to view local times or setup timezone preferences in your user account.

Time Position Orientation Groundspeed Altitude Reporting Facility
EDT Latitude Longitude Course Direction KTS MPH feet Rate Location/Type
Tue 04:01:15 PM 32.7463 -117.2023 303° West  Level FlightAware Approximate
Tue 04:02:15 PM 32.7971 -117.2528 274° West  Level FlightAware Approximate
Tue 04:03:26 PM 32.8000 -117.3000 312° West 262 302 4,400  Level Southern California TRACON
Tue 04:04:26 PM 32.8500 -117.3667 312° West 262 302 7,300 2,750 Climbing Southern California TRACON
Tue 04:05:26 PM 32.9000 -117.4333 306° West 259 298 9,900 1,350 Climbing Southern California TRACON
Tue 04:06:26 PM 32.9500 -117.5167 314° West 320 368 10,000 50 Climbing Southern California TRACON
Tue 04:07:26 PM 33.0167 -117.6000 306° West 344 396 10,000  Level Southern California TRACON
Tue 04:08:21 PM 33.0667 -117.6833 326° Northwest 325 374 10,000  Level Southern California TRACON
Tue 04:09:27 PM 33.1500 -117.7500 337° Northwest 331 381 10,000  Level Southern California TRACON
Tue 04:10:21 PM 33.2167 -117.7833 337° Northwest 337 388 10,000  Level Southern California TRACON
Tue 04:11:21 PM 33.3167 -117.8333 342° North 336 387 10,000 -50 Level Southern California TRACON
Tue 04:12:22 PM 33.4000 -117.8667 337° Northwest 321 369 9,900 -595 Descending Southern California TRACON
Tue 04:13:22 PM 33.4667 -117.9000 337° Northwest 270 311 8,800 -1,300 Descending Southern California TRACON
Tue 04:14:22 PM 33.5333 -117.9333 337° Northwest 256 295 7,300 -900 Descending Southern California TRACON
Tue 04:15:22 PM 33.6000 -117.9667 337° Northwest 258 297 7,000 -150 Descending Southern California TRACON
Tue 04:16:22 PM 33.6667 -118.0000 337° Northwest 245 282 7,000  Level Southern California TRACON
Tue 04:17:28 PM 33.7333 -118.0333 345° North 193 222 7,000  Level Southern California TRACON
Tue 04:18:28 PM 33.7833 -118.0500 15° North 194 223 7,000  Level Southern California TRACON
Tue 04:19:28 PM 33.8333 -118.0333 360° North 204 235 7,000 -104 Level Southern California TRACON
Tue 04:20:23 PM 33.8833 -118.0333 360° North 203 234 6,800 -522 Descending Southern California TRACON
Tue 04:21:23 PM 33.9333 -118.0333 320° Northwest 195 224 6,000 -737 Descending Southern California TRACON
Tue 04:22:17 PM 33.9667 -118.0667 270° West 188 216 5,400 -900 Descending Southern California TRACON
Tue 04:23:23 PM 33.9667 -118.1333 270° West 206 237 4,200 -1,091 Descending Southern California TRACON

Login

Don't have an account? Register now (free) for customized features, flight alerts, and more!